< < Back
Terminal Aerodrome Forecast


Current Version              Previous Versions:   1  2  3  4  5  6  7  8  9  

Terminal Aerodrome Forecast

203
FTUS44 KOHX 212300
TAFBNA
TAF
KBNA 212325Z 2200/2224 14004KT P6SM BKN035
     FM220600 16006KT P6SM OVC015
     FM221200 16008KT P6SM OVC015 PROB30 2214/2218 4SM -DZ BR
     FM221800 15010G20KT P6SM -RA OVC015
     FM222100 16012G22KT 4SM -RA BR OVC015=



Latest METAR

197
SAUS70 KWBC 221800 RRA
MTRBNA
METAR KBNA 221753Z 15012KT 10SM OVC017 12/08 A2983 RMK AO2 SLP102
T01220078 10122 20083 58031


USA.gov is the U.S. government's official web portal to all federal, state and local government web resources and services.